KSJN/SJN METAR and TAF weather

Enter ICAO airport designator
Station Type Date Time Source
KSJN METAR 2019/02/16 02:54 UTC NOAA

KSJN 160254Z AUTO 00000KT 10SM CLR 09/02 A2995 RMK AO2 SLP105 T00890017 51001


Station Type Date Time Source
KSJN Decoded METAR 2019/02/16 02:54 UTC NOAA

ST JOHNS INDUSTRIAL AIRPRK, AZ, United States (KSJN) 34-31N 109-23W 1745M
Feb 15, 2019 - 09:54 PM EST / 2019.02.16 0254 UTC
Wind: Calm:0
Visibility: 10 mile(s):0
Sky conditions: clear
Temperature: 48.0 F (8.9 C)
Dew Point: 35.1 F (1.7 C)
Relative Humidity: 60%
Pressure (altimeter): 29.95 in. Hg (1014 hPa)
Pressure tendency: 0.00 inches (0.1 hPa) higher than three hours ago
ob: KSJN 160254Z AUTO 00000KT 10SM CLR 09/02 A2995 RMK AO2 SLP105 T00890017 51001
cycle: 3

Station Type Date Time Source
KSJN TAF UTC NOAA

Error!


Example: see airport list